Time;durP1;ratioP1;P1;durP2;ratioP2;P2;SDS_P1;SDS_P2;PMS_P1;PMS_P2;Temp;Humidity;BMP_temperature;BMP_pressure;BME280_temperature;BME280_humidity;BME280_pressure;Samples;Min_cycle;Max_cycle;Signal;HPM_P1;HPM_P2
2022/10/31 00:01:02;;;;;;;15.43;8.17;;;;;;;;;;5014853;28;20527;-78
2022/10/31 00:03:28;;;;;;;14.27;8.63;;;;;;;;;;5012334;28;20733;-78
2022/10/31 00:05:54;;;;;;;10.57;7.20;;;;;;;;;;5022545;28;20182;-77
2022/10/31 00:08:20;;;;;;;11.83;7.80;;;;;;;;;;5025160;28;20202;-78
2022/10/31 00:10:46;;;;;;;13.67;8.07;;;;;;;;;;5023592;28;20183;-78
2022/10/31 00:13:13;;;;;;;12.83;7.67;;;;;;;;;;5025747;28;20182;-77
2022/10/31 00:15:40;;;;;;;12.30;8.00;;;;;;;;;;5024273;28;20617;-76
2022/10/31 00:18:07;;;;;;;16.70;8.57;;;;;;;;;;5007509;28;20282;-78
2022/10/31 00:20:33;;;;;;;12.10;8.20;;;;;;;;;;5023372;28;20705;-78
2022/10/31 00:23:01;;;;;;;12.93;8.00;;;;;;;;;;5030780;28;20710;-78
2022/10/31 00:25:28;;;;;;;12.17;8.43;;;;;;;;;;5029853;28;20989;-78
2022/10/31 00:27:55;;;;;;;13.17;8.17;;;;;;;;;;5001355;28;20219;-77
2022/10/31 00:30:21;;;;;;;12.40;8.07;;;;;;;;;;5006517;28;20653;-77
2022/10/31 00:32:47;;;;;;;12.90;7.63;;;;;;;;;;5024375;28;20183;-77
2022/10/31 00:35:14;;;;;;;9.27;6.87;;;;;;;;;;5024367;28;20256;-77
2022/10/31 00:37:40;;;;;;;12.60;8.33;;;;;;;;;;5023895;28;20221;-77
2022/10/31 00:40:06;;;;;;;10.90;8.03;;;;;;;;;;5007283;28;20565;-77
2022/10/31 00:42:33;;;;;;;13.80;8.10;;;;;;;;;;5025977;28;20665;-78
2022/10/31 00:44:59;;;;;;;15.47;8.87;;;;;;;;;;5026206;28;20783;-77
2022/10/31 00:47:25;;;;;;;11.63;7.90;;;;;;;;;;5007153;28;20233;-78
2022/10/31 00:49:51;;;;;;;14.90;8.47;;;;;;;;;;5024248;28;20182;-77
2022/10/31 00:52:18;;;;;;;11.67;8.10;;;;;;;;;;5012026;28;20191;-77
2022/10/31 00:54:44;;;;;;;10.50;7.50;;;;;;;;;;5026543;28;20275;-78
2022/10/31 00:57:10;;;;;;;12.30;7.20;;;;;;;;;;5025064;28;20182;-78
2022/10/31 00:59:36;;;;;;;12.63;7.27;;;;;;;;;;5012929;28;20193;-77
2022/10/31 01:02:02;;;;;;;10.20;6.43;;;;;;;;;;5005676;28;20265;-76
2022/10/31 01:04:28;;;;;;;13.30;7.60;;;;;;;;;;5023989;28;20650;-77
2022/10/31 01:06:56;;;;;;;13.63;8.73;;;;;;;;;;5037722;28;20197;-77
2022/10/31 01:09:23;;;;;;;13.23;8.30;;;;;;;;;;5009861;28;20194;-77
2022/10/31 01:11:50;;;;;;;12.53;7.97;;;;;;;;;;5028375;28;20236;-78
2022/10/31 01:14:16;;;;;;;12.03;7.40;;;;;;;;;;5026703;28;20240;-78
2022/10/31 01:16:42;;;;;;;11.30;8.07;;;;;;;;;;5041146;28;20187;-78
2022/10/31 01:19:08;;;;;;;9.53;7.20;;;;;;;;;;5028306;28;20214;-78
2022/10/31 01:21:34;;;;;;;12.40;7.80;;;;;;;;;;5027786;28;20191;-78
2022/10/31 01:24:03;;;;;;;12.33;7.47;;;;;;;;;;5021662;28;20600;-78
2022/10/31 01:26:31;;;;;;;12.77;7.47;;;;;;;;;;5023232;28;20183;-78
2022/10/31 01:28:59;;;;;;;13.77;7.17;;;;;;;;;;5025035;28;20232;-77
2022/10/31 01:31:27;;;;;;;9.63;7.37;;;;;;;;;;5027439;28;20688;-77
2022/10/31 01:33:54;;;;;;;10.80;6.90;;;;;;;;;;5026984;28;20195;-78
2022/10/31 01:36:24;;;;;;;11.33;6.87;;;;;;;;;;5026915;28;20191;-78
2022/10/31 01:38:52;;;;;;;12.47;7.87;;;;;;;;;;5024711;28;20226;-78
2022/10/31 01:41:19;;;;;;;12.93;7.70;;;;;;;;;;5029158;28;20571;-77
2022/10/31 01:43:56;;;;;;;11.60;7.77;;;;;;;;;;5006424;28;20186;-76
2022/10/31 01:46:28;;;;;;;10.10;7.07;;;;;;;;;;5022948;28;20244;-78
2022/10/31 01:48:54;;;;;;;9.33;7.10;;;;;;;;;;5027247;28;20305;-77
2022/10/31 01:51:23;;;;;;;12.93;7.00;;;;;;;;;;5008446;28;20540;-78
2022/10/31 01:53:51;;;;;;;16.30;9.20;;;;;;;;;;5023070;28;20190;-77
2022/10/31 01:56:18;;;;;;;13.63;8.83;;;;;;;;;;5019295;28;20197;-78
2022/10/31 01:58:46;;;;;;;14.13;8.63;;;;;;;;;;5005560;28;20232;-76
2022/10/31 02:01:16;;;;;;;10.70;8.07;;;;;;;;;;5021976;28;20202;-78
2022/10/31 02:03:42;;;;;;;14.10;8.97;;;;;;;;;;5041552;28;20228;-77
2022/10/31 02:06:10;;;;;;;13.63;7.90;;;;;;;;;;5008430;28;20194;-78
2022/10/31 02:08:37;;;;;;;12.73;8.07;;;;;;;;;;5007383;28;20209;-76
2022/10/31 02:11:03;;;;;;;12.33;7.23;;;;;;;;;;5008127;28;20644;-76
2022/10/31 02:13:30;;;;;;;11.67;7.90;;;;;;;;;;5039005;28;20704;-78
2022/10/31 02:15:58;;;;;;;9.37;7.20;;;;;;;;;;5039814;28;20178;-77
2022/10/31 02:18:26;;;;;;;11.13;7.57;;;;;;;;;;5028080;28;20231;-78
2022/10/31 02:21:11;;;;;;;8.40;6.53;;;;;;;;;;5003864;28;20542;-77
2022/10/31 02:23:51;;;;;;;10.67;7.13;;;;;;;;;;5027163;28;20281;-78
2022/10/31 02:26:38;;;;;;;12.27;7.10;;;;;;;;;;5016865;28;20183;-76
2022/10/31 02:29:10;;;;;;;14.57;7.57;;;;;;;;;;5027357;28;20769;-78
2022/10/31 02:31:58;;;;;;;11.77;7.07;;;;;;;;;;5026537;28;20190;-78
2022/10/31 02:34:29;;;;;;;13.50;6.93;;;;;;;;;;5025351;28;20213;-78
2022/10/31 02:36:58;;;;;;;11.57;7.43;;;;;;;;;;5026854;28;20293;-78
2022/10/31 02:39:33;;;;;;;10.57;6.90;;;;;;;;;;5042918;28;20182;-77
2022/10/31 02:42:24;;;;;;;13.10;8.00;;;;;;;;;;5041803;28;20194;-77
2022/10/31 02:44:56;;;;;;;11.37;7.17;;;;;;;;;;5023196;28;20197;-77
2022/10/31 02:47:27;;;;;;;11.60;8.17;;;;;;;;;;5008076;28;20211;-77
2022/10/31 02:50:09;;;;;;;12.43;7.90;;;;;;;;;;5049293;28;20187;-78
2022/10/31 02:52:35;;;;;;;13.90;7.60;;;;;;;;;;5031367;28;20190;-78
2022/10/31 02:55:33;;;;;;;12.10;7.23;;;;;;;;;;5025477;28;20190;-78
2022/10/31 02:58:05;;;;;;;14.70;8.20;;;;;;;;;;5018229;28;20219;-78
2022/10/31 03:00:38;;;;;;;11.73;7.20;;;;;;;;;;5005882;28;20214;-78
2022/10/31 03:03:12;;;;;;;11.37;7.40;;;;;;;;;;5024156;28;20193;-78
2022/10/31 03:05:45;;;;;;;12.40;7.67;;;;;;;;;;5023740;28;20642;-78
2022/10/31 03:08:28;;;;;;;11.50;7.03;;;;;;;;;;5031674;28;20297;-78
2022/10/31 03:10:59;;;;;;;10.13;7.20;;;;;;;;;;5039322;28;20194;-77
2022/10/31 03:13:33;;;;;;;13.80;7.57;;;;;;;;;;5023006;28;20580;-77
2022/10/31 03:16:14;;;;;;;10.70;7.53;;;;;;;;;;5025361;28;20182;-78
2022/10/31 03:18:47;;;;;;;9.10;6.90;;;;;;;;;;5008172;28;20229;-78
2022/10/31 03:21:15;;;;;;;8.23;6.63;;;;;;;;;;5040649;28;20214;-77
2022/10/31 03:23:43;;;;;;;10.07;6.40;;;;;;;;;;5007976;28;20186;-78
2022/10/31 03:26:11;;;;;;;10.13;6.37;;;;;;;;;;5021301;28;20182;-77
2022/10/31 03:28:43;;;;;;;11.97;6.50;;;;;;;;;;4999793;28;20233;-78
2022/10/31 03:31:11;;;;;;;12.33;6.20;;;;;;;;;;5022460;28;20817;-77
2022/10/31 03:33:40;;;;;;;10.97;6.33;;;;;;;;;;5017476;28;20199;-77
2022/10/31 03:36:09;;;;;;;11.47;6.33;;;;;;;;;;5022424;28;20231;-78
2022/10/31 03:38:35;;;;;;;11.87;6.47;;;;;;;;;;4990831;28;20251;-78
2022/10/31 03:41:03;;;;;;;8.27;5.80;;;;;;;;;;5022674;28;20217;-77
2022/10/31 03:43:33;;;;;;;9.90;6.50;;;;;;;;;;5023024;28;21002;-78
2022/10/31 03:45:59;;;;;;;10.40;6.60;;;;;;;;;;5023204;28;20191;-76
2022/10/31 03:48:26;;;;;;;9.77;6.13;;;;;;;;;;5021906;28;20218;-78
2022/10/31 03:50:58;;;;;;;11.07;6.27;;;;;;;;;;5023262;28;20277;-77
2022/10/31 03:53:33;;;;;;;9.20;5.83;;;;;;;;;;5028041;28;20256;-77
2022/10/31 03:56:10;;;;;;;6.63;4.90;;;;;;;;;;5034864;28;20570;-78
2022/10/31 03:58:43;;;;;;;8.03;5.20;;;;;;;;;;5007765;28;20217;-76
2022/10/31 04:01:12;;;;;;;7.67;6.50;;;;;;;;;;5007253;28;20198;-77
2022/10/31 04:03:40;;;;;;;9.13;5.97;;;;;;;;;;5024396;28;20190;-78
2022/10/31 04:06:09;;;;;;;10.23;6.47;;;;;;;;;;5008455;28;20190;-77
2022/10/31 04:08:40;;;;;;;9.63;6.07;;;;;;;;;;5009182;28;20962;-78
2022/10/31 04:11:09;;;;;;;7.93;5.93;;;;;;;;;;5016678;28;20210;-77
2022/10/31 04:13:40;;;;;;;9.07;6.17;;;;;;;;;;5024750;28;20194;-76
2022/10/31 04:16:12;;;;;;;13.10;6.57;;;;;;;;;;5042029;28;20194;-78
2022/10/31 04:18:40;;;;;;;9.80;6.70;;;;;;;;;;5040231;28;20202;-78
2022/10/31 04:21:07;;;;;;;8.90;6.00;;;;;;;;;;5007511;28;20210;-78
2022/10/31 04:23:35;;;;;;;9.83;6.60;;;;;;;;;;5024276;28;20170;-77
2022/10/31 04:26:08;;;;;;;9.33;6.67;;;;;;;;;;5041381;28;20210;-77
2022/10/31 04:28:34;;;;;;;12.50;7.47;;;;;;;;;;5023166;28;20206;-78
2022/10/31 04:31:01;;;;;;;8.83;5.73;;;;;;;;;;5025425;28;20293;-77
2022/10/31 04:33:28;;;;;;;10.43;6.23;;;;;;;;;;5023399;28;20191;-76
2022/10/31 04:35:55;;;;;;;11.13;6.60;;;;;;;;;;5023479;28;20277;-77
2022/10/31 04:38:21;;;;;;;7.33;6.03;;;;;;;;;;5039521;28;20674;-78
2022/10/31 04:40:48;;;;;;;10.20;5.90;;;;;;;;;;5022910;28;20209;-77
2022/10/31 04:43:46;;;;;;;10.20;6.10;;;;;;;;;;5011867;28;20190;-78
2022/10/31 04:46:13;;;;;;;12.77;6.60;;;;;;;;;;4995188;28;20186;-78
2022/10/31 04:48:39;;;;;;;11.67;6.40;;;;;;;;;;5011292;28;20202;-77
2022/10/31 04:51:07;;;;;;;9.33;6.03;;;;;;;;;;5046198;28;20198;-78
2022/10/31 04:53:33;;;;;;;8.47;6.10;;;;;;;;;;5031668;28;20196;-78
2022/10/31 04:56:18;;;;;;;9.00;6.17;;;;;;;;;;5025703;28;20843;-78
2022/10/31 04:58:47;;;;;;;6.77;5.37;;;;;;;;;;5035027;28;20245;-77
2022/10/31 05:01:13;;;;;;;9.23;6.03;;;;;;;;;;5009577;28;20222;-76
2022/10/31 05:03:40;;;;;;;11.50;7.30;;;;;;;;;;5028297;28;20638;-77
2022/10/31 05:06:07;;;;;;;8.73;6.47;;;;;;;;;;5027425;28;20182;-77
2022/10/31 05:08:34;;;;;;;10.23;6.53;;;;;;;;;;5027172;28;20206;-78
2022/10/31 05:11:04;;;;;;;10.43;6.47;;;;;;;;;;5011181;28;20273;-77
2022/10/31 05:13:30;;;;;;;10.23;8.13;;;;;;;;;;5041805;28;20824;-78
2022/10/31 05:16:11;;;;;;;10.73;8.03;;;;;;;;;;5025070;28;20206;-78
2022/10/31 05:19:16;;;;;;;10.53;7.37;;;;;;;;;;5027435;28;20228;-78
2022/10/31 05:22:20;;;;;;;8.20;6.90;;;;;;;;;;4964227;28;20196;-78
2022/10/31 05:24:46;;;;;;;14.10;7.73;;;;;;;;;;4953140;28;21043;-78
2022/10/31 05:27:13;;;;;;;10.60;7.13;;;;;;;;;;4968876;28;20206;-78
2022/10/31 05:29:39;;;;;;;10.23;7.10;;;;;;;;;;5009366;28;20649;-77
2022/10/31 05:32:05;;;;;;;10.20;7.23;;;;;;;;;;5001081;28;20186;-76
2022/10/31 05:34:58;;;;;;;10.07;7.40;;;;;;;;;;5000949;28;20202;-77
2022/10/31 05:37:57;;;;;;;11.60;7.23;;;;;;;;;;5022965;28;20699;-78
2022/10/31 05:40:23;;;;;;;11.73;7.93;;;;;;;;;;5010580;28;20281;-76
2022/10/31 05:42:51;;;;;;;11.57;7.23;;;;;;;;;;5025316;28;20202;-77
2022/10/31 05:45:18;;;;;;;11.13;7.57;;;;;;;;;;5020193;28;20429;-80
2022/10/31 05:48:02;;;;;;;11.17;6.97;;;;;;;;;;5023907;28;20294;-77
2022/10/31 05:50:48;;;;;;;8.10;6.70;;;;;;;;;;5022690;28;20162;-78
2022/10/31 05:53:15;;;;;;;10.67;7.00;;;;;;;;;;5025382;28;20662;-77
2022/10/31 05:55:43;;;;;;;7.23;5.40;;;;;;;;;;5008629;28;20182;-77
2022/10/31 05:58:12;;;;;;;9.63;5.77;;;;;;;;;;5007128;28;20279;-78
2022/10/31 06:00:42;;;;;;;6.93;5.20;;;;;;;;;;5024832;28;20206;-76
2022/10/31 06:03:10;;;;;;;8.67;5.57;;;;;;;;;;5006090;28;20182;-78
2022/10/31 06:05:46;;;;;;;10.47;6.03;;;;;;;;;;5014298;28;20179;-78
2022/10/31 06:08:13;;;;;;;8.03;6.13;;;;;;;;;;5043973;28;20317;-77
2022/10/31 06:10:41;;;;;;;10.33;7.27;;;;;;;;;;5042145;28;20215;-78
2022/10/31 06:13:07;;;;;;;10.30;7.00;;;;;;;;;;5022740;28;20206;-78
2022/10/31 06:15:39;;;;;;;9.40;6.80;;;;;;;;;;5008748;28;20193;-76
2022/10/31 06:18:08;;;;;;;10.33;7.30;;;;;;;;;;5023313;28;20557;-76
2022/10/31 06:20:45;;;;;;;8.10;6.93;;;;;;;;;;5012039;28;20249;-78
2022/10/31 06:23:12;;;;;;;10.60;6.47;;;;;;;;;;5026444;28;20276;-78
2022/10/31 06:25:40;;;;;;;11.50;7.30;;;;;;;;;;5023765;28;20212;-77
2022/10/31 06:28:06;;;;;;;10.93;6.03;;;;;;;;;;5030853;28;20940;-78
2022/10/31 06:30:55;;;;;;;7.93;6.00;;;;;;;;;;5018031;28;20202;-78
2022/10/31 06:33:22;;;;;;;7.10;5.80;;;;;;;;;;5013866;28;20186;-77
2022/10/31 06:36:06;;;;;;;8.27;6.53;;;;;;;;;;5026333;28;20194;-78
2022/10/31 06:38:33;;;;;;;8.67;6.33;;;;;;;;;;5024696;28;20744;-77
2022/10/31 06:41:02;;;;;;;9.27;6.40;;;;;;;;;;5024806;28;20300;-78
2022/10/31 06:43:34;;;;;;;10.13;7.20;;;;;;;;;;5034498;28;20649;-78
2022/10/31 06:46:24;;;;;;;9.17;6.40;;;;;;;;;;5029624;28;20278;-77
2022/10/31 06:49:10;;;;;;;6.77;5.50;;;;;;;;;;5041923;28;20202;-76
2022/10/31 06:51:50;;;;;;;7.33;5.87;;;;;;;;;;5020790;28;20729;-77
2022/10/31 06:54:17;;;;;;;8.70;5.90;;;;;;;;;;5015456;28;20194;-77
2022/10/31 06:56:43;;;;;;;5.20;4.70;;;;;;;;;;5032878;28;20202;-80
2022/10/31 06:59:09;;;;;;;7.40;5.43;;;;;;;;;;5027661;28;20229;-78
2022/10/31 07:01:53;;;;;;;8.67;6.60;;;;;;;;;;5022113;28;20222;-77
2022/10/31 07:04:20;;;;;;;8.07;5.60;;;;;;;;;;5015052;28;20215;-77
2022/10/31 07:06:50;;;;;;;8.53;6.43;;;;;;;;;;5023448;28;20209;-77
2022/10/31 07:09:18;;;;;;;7.73;6.20;;;;;;;;;;5023829;28;20202;-77
2022/10/31 07:11:45;;;;;;;8.93;6.90;;;;;;;;;;5012910;28;20766;-77
2022/10/31 07:14:12;;;;;;;7.57;6.47;;;;;;;;;;5042603;28;20269;-77
2022/10/31 07:16:38;;;;;;;9.67;6.07;;;;;;;;;;5020279;28;20191;-78
2022/10/31 07:19:06;;;;;;;8.43;6.27;;;;;;;;;;5032268;28;20220;-77
2022/10/31 07:21:33;;;;;;;10.73;6.50;;;;;;;;;;5048462;28;20210;-77
2022/10/31 07:24:00;;;;;;;9.53;6.73;;;;;;;;;;5006144;28;20650;-78
2022/10/31 07:26:42;;;;;;;9.97;6.00;;;;;;;;;;5028853;28;20186;-76
2022/10/31 07:29:09;;;;;;;11.90;7.57;;;;;;;;;;5027222;28;20207;-77
2022/10/31 07:31:35;;;;;;;11.50;7.30;;;;;;;;;;5012162;28;20664;-76
2022/10/31 07:34:08;;;;;;;10.43;6.77;;;;;;;;;;5029525;28;20241;-77
2022/10/31 07:36:35;;;;;;;9.70;6.10;;;;;;;;;;5026009;28;20187;-77
2022/10/31 07:39:03;;;;;;;12.33;7.37;;;;;;;;;;5023993;28;20210;-77
2022/10/31 07:41:32;;;;;;;10.27;7.10;;;;;;;;;;5008077;28;20214;-76
2022/10/31 07:43:59;;;;;;;9.50;7.60;;;;;;;;;;5047411;22;20257;-76
2022/10/31 07:46:44;;;;;;;9.03;7.10;;;;;;;;;;5022717;28;20266;-76
2022/10/31 07:49:28;;;;;;;10.27;7.07;;;;;;;;;;5035759;28;20178;-76
2022/10/31 07:52:09;;;;;;;9.87;7.07;;;;;;;;;;5023168;28;20186;-76
2022/10/31 07:54:54;;;;;;;8.37;6.40;;;;;;;;;;5000878;28;20182;-76
2022/10/31 07:57:23;;;;;;;8.90;6.53;;;;;;;;;;5012538;28;20807;-76
2022/10/31 07:59:49;;;;;;;9.43;6.80;;;;;;;;;;5036765;28;20179;-76
2022/10/31 08:02:17;;;;;;;10.50;6.43;;;;;;;;;;5004359;28;20192;-76
2022/10/31 08:05:04;;;;;;;9.60;7.13;;;;;;;;;;4972545;28;20208;-76
2022/10/31 08:08:06;;;;;;;11.10;6.40;;;;;;;;;;4980662;28;20190;-76
2022/10/31 08:10:33;;;;;;;12.63;8.00;;;;;;;;;;4995187;28;20199;-76
2022/10/31 08:13:00;;;;;;;8.97;7.43;;;;;;;;;;4995020;28;20221;-76
2022/10/31 08:15:27;;;;;;;10.27;6.90;;;;;;;;;;4986273;28;20187;-76
2022/10/31 08:17:53;;;;;;;9.93;7.60;;;;;;;;;;5006024;28;20187;-75
2022/10/31 08:20:20;;;;;;;10.30;7.70;;;;;;;;;;5006759;28;20199;-76
2022/10/31 08:23:03;;;;;;;12.23;7.80;;;;;;;;;;5009498;28;20273;-77
2022/10/31 08:25:34;;;;;;;12.27;7.10;;;;;;;;;;5002244;28;20191;-76
2022/10/31 08:28:01;;;;;;;9.87;7.30;;;;;;;;;;5017135;28;20175;-76
2022/10/31 08:30:30;;;;;;;10.63;6.90;;;;;;;;;;5003544;28;20199;-76
2022/10/31 08:33:17;;;;;;;9.53;6.80;;;;;;;;;;5017487;28;20294;-76
2022/10/31 08:36:02;;;;;;;11.43;7.53;;;;;;;;;;5001204;28;20221;-76
2022/10/31 08:38:52;;;;;;;10.40;7.43;;;;;;;;;;5005583;28;20290;-76
2022/10/31 08:41:18;;;;;;;9.83;7.43;;;;;;;;;;5018945;28;20216;-76
2022/10/31 08:43:44;;;;;;;11.13;6.93;;;;;;;;;;5012204;28;20218;-77
2022/10/31 08:46:11;;;;;;;8.10;7.10;;;;;;;;;;4995669;28;20275;-78
2022/10/31 08:48:39;;;;;;;12.27;7.53;;;;;;;;;;4994162;28;20259;-77
2022/10/31 08:51:06;;;;;;;10.10;7.40;;;;;;;;;;5012714;28;20674;-76
2022/10/31 08:53:32;;;;;;;10.73;7.10;;;;;;;;;;5011126;28;20874;-78
2022/10/31 08:56:34;;;;;;;13.03;7.40;;;;;;;;;;4956506;28;20304;-74
2022/10/31 08:59:03;;;;;;;12.37;7.93;;;;;;;;;;5008303;28;20680;-77
2022/10/31 09:01:55;;;;;;;10.17;7.07;;;;;;;;;;5005551;28;20317;-79
2022/10/31 09:04:21;;;;;;;11.70;8.13;;;;;;;;;;5005668;28;20675;-79
2022/10/31 09:06:49;;;;;;;8.20;6.70;;;;;;;;;;5020802;28;20194;-78
2022/10/31 09:09:16;;;;;;;9.07;7.40;;;;;;;;;;5006038;28;20720;-78
2022/10/31 09:11:42;;;;;;;9.50;7.27;;;;;;;;;;5042533;28;20853;-78
2022/10/31 09:14:29;;;;;;;11.57;6.87;;;;;;;;;;5006164;28;20222;-78
2022/10/31 09:17:15;;;;;;;8.90;7.23;;;;;;;;;;5007345;28;20193;-78
2022/10/31 09:20:01;;;;;;;12.00;7.73;;;;;;;;;;5007403;28;20195;-78
2022/10/31 09:22:31;;;;;;;12.27;8.00;;;;;;;;;;4994370;28;20200;-79
2022/10/31 09:24:59;;;;;;;11.57;8.17;;;;;;;;;;4998868;28;20272;-79
2022/10/31 09:27:25;;;;;;;10.77;7.30;;;;;;;;;;5025714;28;20192;-78
2022/10/31 09:29:53;;;;;;;12.03;7.53;;;;;;;;;;5016956;28;20236;-79
2022/10/31 09:32:19;;;;;;;10.23;7.70;;;;;;;;;;5026316;28;20183;-78
2022/10/31 09:34:46;;;;;;;9.13;6.60;;;;;;;;;;5014088;28;20220;-80
2022/10/31 09:37:16;;;;;;;11.03;7.23;;;;;;;;;;5043837;28;20187;-78
2022/10/31 09:39:42;;;;;;;16.53;7.27;;;;;;;;;;5004284;28;20276;-78
2022/10/31 09:42:17;;;;;;;11.53;7.33;;;;;;;;;;5001049;28;20198;-78
2022/10/31 09:45:03;;;;;;;8.80;6.60;;;;;;;;;;5036776;28;20735;-78
2022/10/31 09:47:45;;;;;;;13.03;8.40;;;;;;;;;;5036533;28;20696;-77
2022/10/31 09:51:05;;;;;;;10.13;7.43;;;;;;;;;;5009229;28;20194;-78
2022/10/31 09:53:51;;;;;;;10.70;6.70;;;;;;;;;;4985040;28;20211;-78
2022/10/31 09:56:23;;;;;;;12.33;7.63;;;;;;;;;;4990450;28;20203;-78
2022/10/31 09:59:00;;;;;;;13.90;8.03;;;;;;;;;;5001506;28;20344;-77
2022/10/31 10:01:40;;;;;;;11.80;7.37;;;;;;;;;;4997117;28;20207;-78
2022/10/31 10:04:29;;;;;;;11.87;8.77;;;;;;;;;;5006689;28;20206;-78
2022/10/31 10:07:06;;;;;;;8.60;7.10;;;;;;;;;;5005080;28;20226;-78
2022/10/31 10:09:50;;;;;;;10.80;8.53;;;;;;;;;;5009252;28;20187;-77
2022/10/31 10:12:41;;;;;;;15.10;9.47;;;;;;;;;;5015912;28;20198;-78
2022/10/31 10:15:26;;;;;;;12.23;8.33;;;;;;;;;;5010551;28;20182;-77
2022/10/31 10:18:22;;;;;;;13.63;8.13;;;;;;;;;;5008479;28;20210;-77
2022/10/31 10:21:04;;;;;;;12.13;8.90;;;;;;;;;;5004577;28;20272;-78
2022/10/31 10:23:30;;;;;;;13.87;8.50;;;;;;;;;;5006312;28;20554;-78
2022/10/31 10:26:15;;;;;;;15.70;9.23;;;;;;;;;;4996863;28;20182;-78
2022/10/31 10:28:45;;;;;;;13.57;8.80;;;;;;;;;;5041438;28;20179;-78
2022/10/31 10:31:16;;;;;;;14.67;8.63;;;;;;;;;;5012100;28;20220;-78
2022/10/31 10:33:51;;;;;;;14.43;8.70;;;;;;;;;;5006586;28;20217;-78
2022/10/31 10:36:21;;;;;;;11.00;8.53;;;;;;;;;;5015207;28;20239;-78
2022/10/31 10:38:52;;;;;;;13.07;8.47;;;;;;;;;;5010998;28;20248;-78
2022/10/31 10:41:23;;;;;;;14.90;9.53;;;;;;;;;;5022416;28;20263;-78
2022/10/31 10:43:50;;;;;;;17.43;10.70;;;;;;;;;;5011106;28;20211;-78
2022/10/31 10:49:20;;;;;;;14.23;9.93;;;;;;;;;;5008785;28;20183;-78
2022/10/31 10:51:47;;;;;;;16.27;10.63;;;;;;;;;;5012183;28;21382;-78
2022/10/31 10:54:13;;;;;;;17.17;11.50;;;;;;;;;;5008533;28;20207;-78
2022/10/31 10:56:40;;;;;;;18.97;11.60;;;;;;;;;;5008888;28;20195;-78
2022/10/31 10:59:09;;;;;;;14.57;11.20;;;;;;;;;;5006633;28;20195;-78
2022/10/31 11:01:35;;;;;;;13.83;10.13;;;;;;;;;;5026017;28;20737;-78
2022/10/31 11:04:04;;;;;;;15.30;10.90;;;;;;;;;;5008900;28;20286;-78
2022/10/31 11:06:30;;;;;;;15.27;11.10;;;;;;;;;;5008167;28;20195;-78
2022/10/31 11:08:56;;;;;;;15.47;11.03;;;;;;;;;;5009009;28;20187;-78
2022/10/31 11:11:25;;;;;;;13.67;10.37;;;;;;;;;;5010201;28;20206;-78
2022/10/31 11:13:56;;;;;;;15.90;10.73;;;;;;;;;;5005802;28;20261;-78
2022/10/31 11:16:25;;;;;;;13.50;9.93;;;;;;;;;;5012384;28;20191;-78
2022/10/31 11:18:51;;;;;;;13.23;10.57;;;;;;;;;;5016963;28;20195;-78
2022/10/31 11:21:20;;;;;;;16.30;12.03;;;;;;;;;;5008387;28;20203;-78
2022/10/31 11:23:46;;;;;;;15.37;10.23;;;;;;;;;;5008037;28;20256;-78
2022/10/31 11:26:20;;;;;;;17.03;11.13;;;;;;;;;;5008028;28;20265;-78
2022/10/31 11:28:56;;;;;;;12.23;9.93;;;;;;;;;;5005138;28;20309;-77
2022/10/31 11:31:23;;;;;;;14.07;9.63;;;;;;;;;;5007712;28;20284;-77
2022/10/31 11:33:50;;;;;;;14.60;10.60;;;;;;;;;;5009190;28;20857;-77
2022/10/31 11:36:21;;;;;;;14.17;10.10;;;;;;;;;;5007158;28;20645;-78
2022/10/31 11:38:47;;;;;;;12.73;10.17;;;;;;;;;;5007799;28;20186;-77
2022/10/31 11:41:26;;;;;;;14.10;8.70;;;;;;;;;;5007386;28;20203;-78
2022/10/31 11:43:54;;;;;;;13.13;10.43;;;;;;;;;;5007856;28;20239;-78
2022/10/31 11:46:34;;;;;;;12.47;9.37;;;;;;;;;;5003526;28;20176;-77
2022/10/31 11:49:01;;;;;;;13.60;9.53;;;;;;;;;;5038120;28;20190;-76
2022/10/31 11:51:29;;;;;;;12.20;10.20;;;;;;;;;;5009794;28;20208;-76
2022/10/31 11:53:59;;;;;;;12.23;9.70;;;;;;;;;;5004447;28;20210;-75
2022/10/31 11:56:25;;;;;;;13.00;9.70;;;;;;;;;;5005938;28;20195;-76
2022/10/31 11:58:56;;;;;;;10.83;9.23;;;;;;;;;;5007033;28;20237;-76
2022/10/31 12:01:26;;;;;;;12.67;9.33;;;;;;;;;;5026222;28;20298;-72
2022/10/31 12:04:04;;;;;;;11.77;8.87;;;;;;;;;;5001045;28;20785;-72
2022/10/31 12:06:33;;;;;;;12.17;8.57;;;;;;;;;;5002662;28;20940;-70
2022/10/31 12:09:00;;;;;;;16.83;9.83;;;;;;;;;;5005629;28;20174;-73
2022/10/31 12:11:29;;;;;;;14.03;9.63;;;;;;;;;;5000571;28;21047;-72
2022/10/31 12:14:08;;;;;;;13.40;9.63;;;;;;;;;;5001437;28;20207;-72
2022/10/31 12:16:39;;;;;;;14.97;10.60;;;;;;;;;;4998962;28;20187;-72
2022/10/31 12:19:06;;;;;;;12.80;10.43;;;;;;;;;;4999656;28;20717;-73
2022/10/31 12:21:38;;;;;;;11.40;9.80;;;;;;;;;;5000090;28;20211;-73
2022/10/31 12:24:05;;;;;;;13.67;9.77;;;;;;;;;;5001778;28;20210;-73
2022/10/31 12:26:40;;;;;;;15.43;9.43;;;;;;;;;;4998767;28;20194;-73
2022/10/31 12:29:46;;;;;;;12.80;9.67;;;;;;;;;;5010024;28;20820;-73
2022/10/31 12:32:12;;;;;;;14.80;10.40;;;;;;;;;;5000113;28;20203;-73
2022/10/31 12:34:45;;;;;;;14.40;10.63;;;;;;;;;;5001872;28;20211;-73
2022/10/31 12:37:18;;;;;;;14.53;10.23;;;;;;;;;;4996222;28;20191;-73
2022/10/31 12:39:56;;;;;;;13.93;10.30;;;;;;;;;;5000800;28;20195;-74
2022/10/31 12:42:32;;;;;;;11.97;9.77;;;;;;;;;;5000023;28;20196;-74
2022/10/31 12:45:05;;;;;;;15.07;9.50;;;;;;;;;;5002098;28;20209;-76
2022/10/31 12:47:31;;;;;;;13.87;9.53;;;;;;;;;;4996868;28;20190;-75
2022/10/31 12:50:06;;;;;;;14.20;10.37;;;;;;;;;;5002297;28;20179;-80
2022/10/31 12:52:32;;;;;;;13.50;10.03;;;;;;;;;;5000327;28;20274;-76
2022/10/31 12:55:03;;;;;;;14.83;9.93;;;;;;;;;;5001609;28;20356;-75
2022/10/31 12:57:36;;;;;;;15.17;11.50;;;;;;;;;;4998299;28;20215;-76
2022/10/31 13:00:20;;;;;;;13.97;10.20;;;;;;;;;;5002538;28;20215;-76
2022/10/31 13:03:02;;;;;;;14.03;9.27;;;;;;;;;;5000836;28;20710;-76
2022/10/31 13:05:31;;;;;;;15.27;10.17;;;;;;;;;;5005830;28;20210;-76
2022/10/31 13:07:57;;;;;;;17.40;10.57;;;;;;;;;;5029852;28;20599;-76
2022/10/31 13:10:32;;;;;;;15.17;11.70;;;;;;;;;;5039380;28;20214;-75
2022/10/31 13:13:02;;;;;;;14.40;10.80;;;;;;;;;;5005935;28;20206;-76
2022/10/31 13:15:32;;;;;;;14.57;10.93;;;;;;;;;;5006298;28;20183;-76
2022/10/31 13:18:00;;;;;;;16.07;10.40;;;;;;;;;;5017781;28;20513;-76
2022/10/31 13:20:39;;;;;;;16.53;12.00;;;;;;;;;;5005525;28;20269;-76
2022/10/31 13:23:10;;;;;;;19.33;12.57;;;;;;;;;;5005340;28;20202;-76
2022/10/31 13:25:39;;;;;;;17.67;12.80;;;;;;;;;;5003489;28;20215;-75
2022/10/31 13:28:08;;;;;;;18.03;13.27;;;;;;;;;;5004211;28;20287;-75
2022/10/31 13:30:38;;;;;;;16.43;12.40;;;;;;;;;;5003676;28;20245;-76
2022/10/31 13:33:19;;;;;;;17.43;12.50;;;;;;;;;;5002389;28;20211;-76
2022/10/31 13:35:48;;;;;;;16.97;12.17;;;;;;;;;;5033674;28;20191;-76
2022/10/31 13:38:30;;;;;;;13.57;10.70;;;;;;;;;;5004392;28;20191;-75
2022/10/31 13:40:59;;;;;;;18.63;12.47;;;;;;;;;;5005922;28;20215;-76
2022/10/31 13:43:56;;;;;;;14.63;11.43;;;;;;;;;;5028336;22;20234;-79
2022/10/31 13:46:34;;;;;;;21.07;12.80;;;;;;;;;;5034723;28;20232;-79
2022/10/31 13:49:00;;;;;;;16.93;12.93;;;;;;;;;;5036288;28;20189;-79
2022/10/31 13:51:31;;;;;;;17.13;12.23;;;;;;;;;;5035448;28;20240;-79
2022/10/31 13:54:02;;;;;;;22.53;12.30;;;;;;;;;;5028233;28;20212;-79
2022/10/31 13:56:30;;;;;;;15.53;12.23;;;;;;;;;;5045533;28;20242;-79
2022/10/31 13:59:00;;;;;;;16.53;11.90;;;;;;;;;;5036612;28;20272;-79
2022/10/31 14:01:28;;;;;;;16.40;11.83;;;;;;;;;;5023903;28;20210;-80
2022/10/31 14:03:57;;;;;;;11.73;10.50;;;;;;;;;;5028701;28;20297;-79
2022/10/31 14:06:34;;;;;;;17.43;11.80;;;;;;;;;;5029824;28;20183;-79
2022/10/31 14:09:01;;;;;;;20.23;12.10;;;;;;;;;;5029451;28;20251;-80
2022/10/31 14:11:28;;;;;;;16.63;11.40;;;;;;;;;;5015693;28;20656;-79
2022/10/31 14:13:56;;;;;;;22.27;13.70;;;;;;;;;;5027871;28;20264;-79
2022/10/31 14:16:30;;;;;;;17.77;13.30;;;;;;;;;;5032464;28;20282;-79
2022/10/31 14:19:01;;;;;;;18.33;12.90;;;;;;;;;;5026999;28;20190;-79
2022/10/31 14:21:29;;;;;;;14.20;10.97;;;;;;;;;;5035438;28;20209;-79
2022/10/31 14:23:57;;;;;;;16.97;11.77;;;;;;;;;;5031113;28;20215;-80
2022/10/31 14:26:26;;;;;;;17.73;12.63;;;;;;;;;;5029048;28;20514;-81
2022/10/31 14:28:53;;;;;;;15.73;11.43;;;;;;;;;;5032490;28;20188;-81
2022/10/31 14:31:40;;;;;;;16.73;11.97;;;;;;;;;;5033472;28;20265;-80
2022/10/31 14:34:26;;;;;;;15.70;10.73;;;;;;;;;;5026507;28;20309;-80
2022/10/31 14:37:01;;;;;;;12.23;10.47;;;;;;;;;;5034257;28;20470;-81
2022/10/31 14:39:30;;;;;;;11.83;9.43;;;;;;;;;;5029133;28;20193;-80
2022/10/31 14:42:01;;;;;;;17.83;9.87;;;;;;;;;;5032829;28;20210;-80
2022/10/31 14:44:47;;;;;;;15.90;10.10;;;;;;;;;;5031067;28;20217;-81
2022/10/31 14:47:25;;;;;;;14.33;9.60;;;;;;;;;;5031242;28;20654;-80
2022/10/31 14:49:57;;;;;;;11.33;8.33;;;;;;;;;;5047175;28;20183;-80
2022/10/31 14:52:23;;;;;;;16.57;9.23;;;;;;;;;;5017797;28;20190;-81
2022/10/31 14:54:52;;;;;;;12.50;8.60;;;;;;;;;;5028750;28;20656;-80
2022/10/31 14:57:29;;;;;;;11.63;8.27;;;;;;;;;;5028946;28;20418;-80
2022/10/31 14:59:59;;;;;;;12.10;8.80;;;;;;;;;;5025423;28;20335;-80
2022/10/31 15:02:43;;;;;;;12.70;8.53;;;;;;;;;;5028752;28;20216;-83